createdAt,value
2023-01-30T00:01:36.816Z,6.07
2023-01-30T00:04:05.596Z,6.32
2023-01-30T00:06:37.373Z,6.05
2023-01-30T00:09:06.137Z,6.20
2023-01-30T00:11:35.084Z,7.10
2023-01-30T00:14:05.218Z,6.05
2023-01-30T00:16:33.941Z,6.03
2023-01-30T00:19:02.801Z,5.28
2023-01-30T00:21:31.638Z,5.85
2023-01-30T00:24:00.955Z,5.63
2023-01-30T00:26:30.060Z,6.13
2023-01-30T00:28:58.862Z,6.07
2023-01-30T00:31:29.092Z,5.47
2023-01-30T00:33:57.843Z,5.95
2023-01-30T00:36:26.699Z,5.53
2023-01-30T00:38:58.804Z,5.63
2023-01-30T00:41:48.296Z,5.88
2023-01-30T00:44:34.072Z,5.93
2023-01-30T00:47:08.728Z,5.93
2023-01-30T00:49:38.347Z,5.88
2023-01-30T00:52:07.569Z,5.95
2023-01-30T00:54:36.491Z,6.07
2023-01-30T00:57:05.336Z,6.15
2023-01-30T00:59:34.172Z,6.55
2023-01-30T01:02:04.402Z,6.63
2023-01-30T01:04:43.284Z,6.60
2023-01-30T01:07:13.683Z,6.75
2023-01-30T01:09:43.265Z,6.30
2023-01-30T01:12:12.025Z,7.10
2023-01-30T01:14:40.779Z,6.97
2023-01-30T01:17:11.085Z,6.45
2023-01-30T01:19:40.410Z,7.40
2023-01-30T01:22:09.053Z,7.05
2023-01-30T01:24:37.852Z,6.78
2023-01-30T01:27:06.878Z,7.35
2023-01-30T01:29:35.588Z,7.10
2023-01-30T01:32:04.474Z,7.25
2023-01-30T01:34:34.672Z,6.55
2023-01-30T01:37:03.448Z,6.60
2023-01-30T01:39:46.121Z,7.70
2023-01-30T01:42:15.104Z,7.30
2023-01-30T01:45:03.680Z,7.22
2023-01-30T01:47:33.283Z,7.32
2023-01-30T01:50:03.833Z,7.10
2023-01-30T01:52:32.918Z,7.35
2023-01-30T01:55:04.900Z,7.05
2023-01-30T01:57:37.496Z,7.63
2023-01-30T02:00:12.326Z,7.68
2023-01-30T02:02:47.409Z,7.28
2023-01-30T02:05:20.077Z,6.53
2023-01-30T02:07:52.718Z,7.00
2023-01-30T02:10:25.696Z,7.15
2023-01-30T02:12:54.390Z,7.70
2023-01-30T02:15:23.930Z,6.90
2023-01-30T02:17:52.868Z,7.43
2023-01-30T02:20:32.076Z,6.50
2023-01-30T02:23:28.766Z,7.20
2023-01-30T02:26:35.877Z,6.78
2023-01-30T02:29:34.610Z,6.13
2023-01-30T02:32:14.334Z,6.75
2023-01-30T02:34:52.359Z,6.70
2023-01-30T02:37:32.659Z,6.57
2023-01-30T02:40:24.047Z,6.15
2023-01-30T02:43:02.539Z,6.00
2023-01-30T02:45:37.866Z,5.70
2023-01-30T02:48:11.141Z,5.22
2023-01-30T02:50:44.792Z,5.88
2023-01-30T02:53:14.341Z,5.32
2023-01-30T02:55:44.251Z,5.60
2023-01-30T02:58:14.996Z,5.00
2023-01-30T03:01:04.909Z,5.25
2023-01-30T03:04:02.982Z,5.22
2023-01-30T03:06:43.761Z,5.38
2023-01-30T03:09:21.623Z,4.97
2023-01-30T03:12:01.637Z,5.70
2023-01-30T03:14:37.118Z,5.07
2023-01-30T03:17:12.039Z,5.10
2023-01-30T03:19:43.065Z,5.53
2023-01-30T03:22:12.856Z,5.63
2023-01-30T03:24:41.797Z,5.75
2023-01-30T03:27:13.722Z,5.32
2023-01-30T03:29:43.497Z,5.43
2023-01-30T03:32:12.301Z,5.20
2023-01-30T03:34:44.036Z,5.00
2023-01-30T03:37:13.071Z,4.85
2023-01-30T03:39:42.297Z,5.13
2023-01-30T03:42:12.665Z,5.45
2023-01-30T03:44:41.687Z,5.13
2023-01-30T03:47:10.994Z,4.97
2023-01-30T03:49:40.034Z,5.00
2023-01-30T03:52:10.914Z,4.30
2023-01-30T03:54:40.179Z,5.15
2023-01-30T03:57:09.081Z,5.00
2023-01-30T03:59:38.052Z,4.78
2023-01-30T04:02:10.896Z,4.97
2023-01-30T04:04:40.538Z,4.30
2023-01-30T04:07:12.969Z,4.30
2023-01-30T04:09:42.990Z,4.90
2023-01-30T04:12:12.655Z,3.90
2023-01-30T04:14:50.159Z,4.32
2023-01-30T04:17:37.497Z,4.53
2023-01-30T04:20:38.833Z,4.07
2023-01-30T04:23:09.033Z,3.92
2023-01-30T04:25:37.798Z,4.30
2023-01-30T04:28:09.572Z,4.13
2023-01-30T04:30:40.422Z,3.78
2023-01-30T04:33:35.879Z,4.57
2023-01-30T04:36:09.283Z,3.85
2023-01-30T04:38:40.430Z,4.07
2023-01-30T04:41:09.680Z,4.25
2023-01-30T04:43:41.947Z,4.22
2023-01-30T04:46:33.849Z,4.30
2023-01-30T04:49:02.719Z,4.00
2023-01-30T04:51:31.850Z,3.97
2023-01-30T04:54:04.014Z,4.07
2023-01-30T04:56:33.516Z,3.92
2023-01-30T04:59:02.456Z,4.13
2023-01-30T05:01:38.126Z,3.95
2023-01-30T05:04:08.193Z,4.05
2023-01-30T05:06:37.875Z,4.50
2023-01-30T05:09:08.436Z,4.18
2023-01-30T05:11:37.374Z,3.72
2023-01-30T05:14:06.317Z,3.92
2023-01-30T05:16:35.580Z,4.25
2023-01-30T05:19:04.306Z,3.78
2023-01-30T05:21:33.433Z,4.07
2023-01-30T05:24:02.078Z,4.03
2023-01-30T05:26:32.326Z,4.00
2023-01-30T05:29:01.185Z,4.20
2023-01-30T05:31:30.173Z,4.55
2023-01-30T05:33:58.940Z,4.05
2023-01-30T05:36:27.704Z,3.83
2023-01-30T05:38:56.555Z,4.18
2023-01-30T05:41:25.335Z,4.50
2023-01-30T05:43:55.558Z,4.97
2023-01-30T05:46:24.337Z,5.03
2023-01-30T05:48:53.162Z,5.07
2023-01-30T05:51:23.958Z,4.97
2023-01-30T05:53:52.959Z,5.57
2023-01-30T05:56:22.124Z,5.30
2023-01-30T05:58:56.928Z,5.45
2023-01-30T06:01:26.165Z,5.13
2023-01-30T06:03:55.501Z,5.72
2023-01-30T06:06:24.913Z,5.22
2023-01-30T06:08:55.843Z,4.65
2023-01-30T06:11:25.279Z,5.35
2023-01-30T06:13:54.009Z,5.47
2023-01-30T06:16:24.307Z,5.32
2023-01-30T06:18:53.291Z,5.18
2023-01-30T06:21:22.265Z,5.05
2023-01-30T06:23:51.801Z,4.60
2023-01-30T06:26:21.209Z,4.45
2023-01-30T06:28:49.850Z,5.00
2023-01-30T06:31:18.502Z,4.10
2023-01-30T06:33:50.014Z,3.97
2023-01-30T06:36:19.122Z,3.88
2023-01-30T06:38:48.832Z,3.70
2023-01-30T06:41:17.847Z,3.95
2023-01-30T06:43:46.808Z,3.25
2023-01-30T06:46:15.681Z,3.00
2023-01-30T06:48:44.637Z,3.50
2023-01-30T06:51:15.084Z,2.83
2023-01-30T06:53:44.087Z,2.90
2023-01-30T06:56:13.018Z,2.65
2023-01-30T06:58:41.964Z,2.40
2023-01-30T07:01:10.830Z,2.05
2023-01-30T07:03:39.667Z,2.13
2023-01-30T07:06:08.687Z,2.47
2023-01-30T07:08:38.655Z,2.08
2023-01-30T07:11:10.757Z,1.75
2023-01-30T07:13:39.476Z,1.58
2023-01-30T07:16:09.765Z,1.73
2023-01-30T07:18:38.821Z,1.50
2023-01-30T07:21:07.810Z,1.58
2023-01-30T07:23:38.128Z,1.50
2023-01-30T07:26:07.650Z,1.50
2023-01-30T07:28:36.724Z,1.45
2023-01-30T07:31:05.767Z,1.38
2023-01-30T07:33:34.542Z,1.52
2023-01-30T07:36:03.391Z,1.30
2023-01-30T07:38:32.051Z,1.35
2023-01-30T07:41:02.293Z,1.30
2023-01-30T07:43:30.879Z,1.13
2023-01-30T07:46:01.504Z,0.88
2023-01-30T07:48:30.535Z,1.35
2023-01-30T07:50:59.723Z,1.30
2023-01-30T07:53:28.760Z,0.88
2023-01-30T07:55:57.957Z,1.08
2023-01-30T07:58:29.938Z,1.10
2023-01-30T08:00:59.236Z,1.10
2023-01-30T08:03:27.870Z,1.08
2023-01-30T08:05:56.349Z,0.90
2023-01-30T08:08:24.959Z,1.08
2023-01-30T08:10:53.541Z,0.80
2023-01-30T08:13:22.156Z,0.93
2023-01-30T08:15:52.093Z,1.00
2023-01-30T08:18:20.624Z,1.40
2023-01-30T08:20:49.310Z,1.40
2023-01-30T08:23:17.961Z,1.30
2023-01-30T08:25:46.459Z,1.73
2023-01-30T08:28:15.018Z,1.30
2023-01-30T08:30:44.528Z,1.27
2023-01-30T08:33:14.455Z,1.70
2023-01-30T08:35:43.338Z,1.38
2023-01-30T08:38:12.413Z,1.60
2023-01-30T08:40:41.226Z,2.28
2023-01-30T08:43:10.373Z,1.92
2023-01-30T08:45:39.028Z,2.70
2023-01-30T08:48:08.161Z,2.25
2023-01-30T08:50:38.092Z,3.05
2023-01-30T08:53:08.985Z,3.22
2023-01-30T08:55:37.749Z,3.90
2023-01-30T08:58:06.264Z,4.35
2023-01-30T09:00:34.774Z,3.88
2023-01-30T09:03:03.467Z,4.57
2023-01-30T09:05:32.020Z,4.53
2023-01-30T09:08:02.248Z,5.03
2023-01-30T09:10:30.897Z,4.70
2023-01-30T09:12:59.468Z,5.13
2023-01-30T09:15:28.477Z,4.93
2023-01-30T09:17:56.991Z,5.20
2023-01-30T09:20:25.742Z,5.50
2023-01-30T09:22:54.407Z,5.88
2023-01-30T09:25:24.376Z,5.22
2023-01-30T09:27:53.052Z,5.57
2023-01-30T09:30:21.840Z,5.43
2023-01-30T09:32:50.609Z,5.18
2023-01-30T09:35:19.645Z,4.35
2023-01-30T09:37:49.143Z,4.75
2023-01-30T09:40:21.776Z,4.70
2023-01-30T09:43:19.205Z,4.18
2023-01-30T09:46:02.099Z,4.07
2023-01-30T09:48:34.704Z,4.78
2023-01-30T09:51:17.694Z,4.25
2023-01-30T09:54:00.240Z,4.80
2023-01-30T09:56:29.570Z,5.00
2023-01-30T09:59:02.421Z,5.15
2023-01-30T10:01:37.828Z,4.60
2023-01-30T10:04:16.322Z,4.03
2023-01-30T10:06:55.000Z,4.57
2023-01-30T10:09:34.330Z,5.35
2023-01-30T10:12:20.379Z,4.07
2023-01-30T10:15:03.345Z,3.72
2023-01-30T10:17:40.928Z,4.25
2023-01-30T10:20:26.638Z,4.60
2023-01-30T10:23:17.931Z,4.60
2023-01-30T10:25:50.101Z,3.97
2023-01-30T10:28:24.018Z,4.30
2023-01-30T10:30:57.406Z,4.53
2023-01-30T10:33:32.706Z,4.05
2023-01-30T10:36:05.987Z,3.63
2023-01-30T10:38:41.802Z,3.05
2023-01-30T10:41:16.804Z,3.40
2023-01-30T10:43:48.803Z,3.42
2023-01-30T10:46:34.637Z,3.13
2023-01-30T10:49:06.053Z,2.67
2023-01-30T10:51:45.773Z,3.03
2023-01-30T10:54:19.931Z,2.70
2023-01-30T10:56:54.413Z,2.47
2023-01-30T10:59:25.327Z,2.15
2023-01-30T11:02:03.789Z,3.10
2023-01-30T11:04:38.224Z,2.50
2023-01-30T11:07:07.764Z,2.28
2023-01-30T11:09:41.189Z,2.70
2023-01-30T11:12:10.904Z,2.45
2023-01-30T11:14:58.679Z,2.50
2023-01-30T11:17:35.180Z,2.10
2023-01-30T11:20:10.822Z,2.42
2023-01-30T11:22:47.252Z,2.58
2023-01-30T11:25:18.302Z,2.20
2023-01-30T11:27:55.869Z,2.20
2023-01-30T11:30:29.300Z,2.40
2023-01-30T11:33:12.189Z,2.20
2023-01-30T11:35:46.503Z,2.35
2023-01-30T11:38:23.491Z,2.15
2023-01-30T11:41:02.026Z,2.20
2023-01-30T11:43:30.875Z,2.33
2023-01-30T11:46:00.435Z,2.72
2023-01-30T11:49:14.497Z,2.40
2023-01-30T11:51:23.908Z,2.60
2023-01-30T11:53:58.405Z,2.38
2023-01-30T11:56:34.566Z,2.08
2023-01-30T11:59:05.907Z,2.42
2023-01-30T12:01:37.421Z,2.38
2023-01-30T12:04:12.273Z,2.47
2023-01-30T12:06:43.405Z,2.25
2023-01-30T12:09:34.389Z,2.67
2023-01-30T12:12:03.080Z,2.33
2023-01-30T12:14:41.102Z,2.75
2023-01-30T12:17:18.981Z,2.78
2023-01-30T12:20:01.740Z,2.08
2023-01-30T12:22:37.948Z,2.42
2023-01-30T12:25:14.985Z,3.05
2023-01-30T12:27:56.231Z,2.65
2023-01-30T12:30:30.544Z,2.40
2023-01-30T12:36:01.361Z,2.67
2023-01-30T12:38:50.117Z,2.40
2023-01-30T12:41:34.788Z,2.58
2023-01-30T12:44:22.594Z,2.30
2023-01-30T12:47:09.078Z,2.60
2023-01-30T12:49:52.531Z,2.83
2023-01-30T12:52:42.936Z,2.22
2023-01-30T12:55:23.927Z,2.20
2023-01-30T12:57:57.152Z,2.45
2023-01-30T13:00:44.992Z,2.40
2023-01-30T13:03:24.680Z,2.38
2023-01-30T13:06:07.489Z,2.08
2023-01-30T13:09:00.366Z,2.50
2023-01-30T13:11:42.971Z,2.60
2023-01-30T13:14:23.341Z,2.80
2023-01-30T13:17:06.964Z,2.13
2023-01-30T13:19:41.628Z,2.10
2023-01-30T13:22:18.804Z,2.42
2023-01-30T13:25:01.328Z,2.22
2023-01-30T13:27:33.664Z,2.33
2023-01-30T13:30:05.642Z,2.55
2023-01-30T13:32:41.713Z,2.33
2023-01-30T13:35:18.072Z,1.90
2023-01-30T13:37:49.274Z,2.55
2023-01-30T13:40:22.321Z,2.10
2023-01-30T13:42:55.771Z,2.28
2023-01-30T13:45:27.924Z,2.13
2023-01-30T13:48:11.939Z,2.40
2023-01-30T13:50:56.521Z,1.73
2023-01-30T13:53:31.263Z,2.50
2023-01-30T13:56:16.250Z,2.40
2023-01-30T13:59:00.215Z,2.45
2023-01-30T14:02:18.867Z,2.35
2023-01-30T14:04:52.233Z,2.28
2023-01-30T14:07:27.721Z,2.22
2023-01-30T14:10:16.913Z,2.30
2023-01-30T14:12:48.344Z,2.28
2023-01-30T14:15:26.661Z,2.30
2023-01-30T14:18:01.710Z,2.58
2023-01-30T14:20:31.553Z,2.92
2023-01-30T14:23:03.454Z,2.42
2023-01-30T14:25:50.849Z,1.95
2023-01-30T14:28:52.169Z,2.63
2023-01-30T14:31:51.305Z,2.08
2023-01-30T14:35:14.536Z,2.20
2023-01-30T14:38:05.903Z,2.70
2023-01-30T14:40:37.156Z,2.33
2023-01-30T14:43:34.924Z,2.42
2023-01-30T14:46:07.502Z,2.42
2023-01-30T14:48:44.701Z,2.45
2023-01-30T14:51:23.597Z,2.97
2023-01-30T14:53:56.032Z,2.30
2023-01-30T14:56:40.431Z,2.58
2023-01-30T14:59:18.093Z,2.58
2023-01-30T15:02:09.475Z,2.42
2023-01-30T15:04:45.183Z,2.30
2023-01-30T15:07:21.370Z,3.17
2023-01-30T15:09:55.520Z,2.78
2023-01-30T15:12:41.606Z,2.88
2023-01-30T15:15:22.071Z,2.28
2023-01-30T15:18:08.692Z,2.13
2023-01-30T15:20:50.058Z,2.28
2023-01-30T15:23:47.949Z,2.38
2023-01-30T15:26:31.042Z,2.60
2023-01-30T15:29:16.777Z,3.40
2023-01-30T15:31:55.661Z,2.35
2023-01-30T15:34:24.688Z,2.60
2023-01-30T15:36:53.180Z,2.38
2023-01-30T15:39:25.296Z,2.88
2023-01-30T15:41:57.130Z,2.33
2023-01-30T15:44:51.429Z,3.10
2023-01-30T15:47:47.157Z,2.70
2023-01-30T15:50:16.268Z,3.25
2023-01-30T15:52:48.322Z,2.30
2023-01-30T15:55:21.860Z,2.83
2023-01-30T15:57:54.032Z,2.75
2023-01-30T16:00:28.207Z,2.88
2023-01-30T16:02:58.423Z,3.03
2023-01-30T16:05:27.707Z,2.72
2023-01-30T16:07:57.981Z,2.83
2023-01-30T16:10:30.722Z,2.10
2023-01-30T16:13:03.335Z,2.88
2023-01-30T16:15:36.620Z,3.58
2023-01-30T16:18:14.431Z,2.33
2023-01-30T16:21:00.126Z,2.88
2023-01-30T16:23:33.022Z,2.60
2023-01-30T16:26:04.364Z,2.38
2023-01-30T16:28:33.723Z,2.65
2023-01-30T16:31:04.581Z,2.85
2023-01-30T16:33:36.455Z,2.40
2023-01-30T16:36:07.929Z,2.38
2023-01-30T16:38:40.244Z,2.40
2023-01-30T16:41:29.683Z,2.50
2023-01-30T16:44:17.571Z,2.70
2023-01-30T16:46:52.868Z,2.10
2023-01-30T16:49:24.770Z,2.40
2023-01-30T16:52:02.348Z,2.92
2023-01-30T16:54:32.763Z,2.78
2023-01-30T16:57:03.843Z,2.38
2023-01-30T16:59:34.350Z,2.88
2023-01-30T17:02:06.108Z,3.22
2023-01-30T17:04:35.766Z,2.67
2023-01-30T17:07:05.524Z,2.60
2023-01-30T17:09:43.593Z,2.78
2023-01-30T17:12:38.973Z,2.83
2023-01-30T17:15:27.176Z,2.80
2023-01-30T17:17:55.781Z,2.70
2023-01-30T17:20:24.729Z,2.67
2023-01-30T17:22:53.923Z,2.72
2023-01-30T17:25:31.599Z,2.60
2023-01-30T17:28:01.549Z,2.97
2023-01-30T17:30:30.676Z,3.63
2023-01-30T17:32:59.346Z,3.65
2023-01-30T17:35:28.082Z,2.85
2023-01-30T17:38:05.301Z,3.00
2023-01-30T17:40:37.104Z,2.65
2023-01-30T17:43:07.320Z,3.60
2023-01-30T17:45:37.266Z,3.58
2023-01-30T17:48:06.776Z,3.25
2023-01-30T17:50:36.692Z,2.97
2023-01-30T17:53:05.569Z,2.80
2023-01-30T17:55:35.405Z,3.38
2023-01-30T17:58:04.701Z,3.35
2023-01-30T18:00:34.862Z,4.65
2023-01-30T18:03:03.684Z,3.97
2023-01-30T18:05:32.390Z,3.72
2023-01-30T18:08:01.631Z,3.00
2023-01-30T18:10:30.585Z,3.40
2023-01-30T18:12:59.252Z,3.05
2023-01-30T18:15:28.267Z,3.13
2023-01-30T18:17:58.228Z,2.53
2023-01-30T18:20:26.871Z,2.58
2023-01-30T18:22:55.470Z,3.20
2023-01-30T18:25:24.100Z,3.10
2023-01-30T18:27:52.669Z,2.72
2023-01-30T18:30:24.405Z,2.70
2023-01-30T18:32:54.079Z,3.22
2023-01-30T18:35:24.524Z,2.53
2023-01-30T18:37:53.341Z,2.83
2023-01-30T18:40:22.617Z,2.97
2023-01-30T18:42:51.473Z,3.13
2023-01-30T18:45:20.175Z,3.47
2023-01-30T18:47:48.777Z,3.30
2023-01-30T18:50:17.957Z,3.05
2023-01-30T18:52:48.436Z,2.97
2023-01-30T18:55:17.341Z,2.60
2023-01-30T18:57:45.991Z,2.97
2023-01-30T19:00:17.253Z,2.85
2023-01-30T19:02:46.406Z,2.60
2023-01-30T19:05:15.637Z,3.22
2023-01-30T19:07:44.262Z,3.20
2023-01-30T19:10:17.545Z,2.42
2023-01-30T19:13:04.260Z,2.75
2023-01-30T19:15:35.956Z,3.25
2023-01-30T19:18:04.717Z,2.95
2023-01-30T19:20:34.786Z,2.92
2023-01-30T19:23:03.317Z,3.05
2023-01-30T19:25:33.483Z,2.78
2023-01-30T19:28:02.157Z,2.25
2023-01-30T19:30:31.722Z,2.65
2023-01-30T19:33:00.472Z,3.10
2023-01-30T19:35:29.361Z,2.63
2023-01-30T19:38:00.388Z,2.60
2023-01-30T19:40:29.149Z,2.67
2023-01-30T19:43:09.321Z,2.45
2023-01-30T19:45:40.177Z,3.53
2023-01-30T19:48:09.784Z,2.70
2023-01-30T19:50:38.823Z,3.47
2023-01-30T19:53:07.983Z,2.50
2023-01-30T19:55:36.615Z,2.45
2023-01-30T19:58:06.583Z,2.88
2023-01-30T20:00:35.499Z,2.92
2023-01-30T20:03:04.249Z,2.92
2023-01-30T20:05:33.116Z,3.00
2023-01-30T20:08:01.783Z,3.40
2023-01-30T20:10:30.339Z,3.00
2023-01-30T20:12:58.975Z,3.17
2023-01-30T20:15:28.939Z,2.58
2023-01-30T20:17:57.486Z,3.05
2023-01-30T20:20:26.031Z,3.28
2023-01-30T20:22:54.561Z,3.28
2023-01-30T20:25:23.159Z,3.65
2023-01-30T20:27:51.787Z,4.32
2023-01-30T20:30:20.755Z,3.35
2023-01-30T20:32:54.797Z,3.50
2023-01-30T20:35:23.369Z,3.08
2023-01-30T20:37:52.708Z,2.70
2023-01-30T20:40:21.448Z,3.78
2023-01-30T20:42:50.148Z,2.95
2023-01-30T20:45:18.664Z,3.33
2023-01-30T20:47:47.168Z,2.85
2023-01-30T20:50:18.278Z,3.35
2023-01-30T20:52:51.394Z,3.30
2023-01-30T20:55:20.533Z,3.38
2023-01-30T20:57:49.238Z,3.00
2023-01-30T21:00:18.698Z,3.30
2023-01-30T21:02:52.408Z,2.97
2023-01-30T21:05:22.318Z,3.22
2023-01-30T21:07:50.901Z,3.00
2023-01-30T21:10:19.614Z,3.17
2023-01-30T21:12:48.713Z,3.65
2023-01-30T21:15:17.712Z,4.03
2023-01-30T21:17:47.395Z,2.90
2023-01-30T21:20:16.345Z,2.78
2023-01-30T21:22:46.261Z,3.50
2023-01-30T21:25:14.799Z,3.22
2023-01-30T21:27:43.787Z,3.65
2023-01-30T21:30:13.954Z,4.05
2023-01-30T21:32:42.504Z,4.05
2023-01-30T21:35:11.212Z,3.42
2023-01-30T21:37:57.915Z,3.67
2023-01-30T21:40:45.187Z,3.50
2023-01-30T21:43:16.729Z,4.10
2023-01-30T21:45:45.511Z,3.33
2023-01-30T21:48:14.072Z,3.40
2023-01-30T21:50:42.613Z,4.00
2023-01-30T21:53:11.159Z,3.60
2023-01-30T21:55:41.124Z,4.30
2023-01-30T21:58:09.680Z,4.07
2023-01-30T22:00:38.151Z,4.10
2023-01-30T22:03:06.707Z,3.90
2023-01-30T22:05:36.762Z,3.97
2023-01-30T22:08:06.046Z,3.97
2023-01-30T22:10:34.619Z,3.40
2023-01-30T22:13:04.590Z,3.67
2023-01-30T22:15:33.857Z,2.88
2023-01-30T22:18:03.868Z,3.47
2023-01-30T22:20:32.436Z,3.42
2023-01-30T22:23:00.944Z,5.13
2023-01-30T22:25:29.627Z,3.35
2023-01-30T22:27:58.166Z,3.78
2023-01-30T22:30:28.088Z,3.20
2023-01-30T22:32:56.644Z,3.20
2023-01-30T22:35:25.197Z,3.78
2023-01-30T22:37:54.240Z,4.10
2023-01-30T22:40:22.884Z,3.72
2023-01-30T22:42:51.515Z,3.80
2023-01-30T22:45:20.241Z,3.28
2023-01-30T22:47:50.531Z,3.95
2023-01-30T22:50:19.207Z,3.72
2023-01-30T22:52:47.715Z,2.65
2023-01-30T22:55:16.379Z,4.38
2023-01-30T22:57:45.062Z,3.28
2023-01-30T23:00:14.219Z,2.95
2023-01-30T23:02:42.816Z,3.58
2023-01-30T23:05:12.946Z,3.72
2023-01-30T23:07:41.547Z,3.15
2023-01-30T23:10:11.359Z,3.58
2023-01-30T23:12:57.232Z,3.25
2023-01-30T23:15:25.888Z,2.80
2023-01-30T23:18:17.454Z,3.05
2023-01-30T23:20:47.350Z,2.22
2023-01-30T23:23:15.837Z,3.20
2023-01-30T23:25:45.001Z,3.45
2023-01-30T23:28:13.637Z,3.47
2023-01-30T23:30:42.346Z,3.10
2023-01-30T23:33:10.904Z,3.45
2023-01-30T23:35:40.118Z,3.28
2023-01-30T23:38:19.146Z,3.42
2023-01-30T23:40:48.923Z,2.95
2023-01-30T23:43:17.988Z,3.60
2023-01-30T23:45:46.598Z,3.30
2023-01-30T23:48:15.141Z,3.28
2023-01-30T23:50:44.118Z,3.00
2023-01-30T23:53:14.065Z,3.78
2023-01-30T23:55:51.526Z,2.92
2023-01-30T23:58:20.247Z,3.30
